createdAt,value
2023-03-18T00:01:35.119Z,2.80
2023-03-18T00:04:02.551Z,2.60
2023-03-18T00:06:30.466Z,2.70
2023-03-18T00:08:58.455Z,2.90
2023-03-18T00:11:25.412Z,3.10
2023-03-18T00:13:53.135Z,2.80
2023-03-18T00:16:21.328Z,3.07
2023-03-18T00:18:48.770Z,2.67
2023-03-18T00:21:16.950Z,2.93
2023-03-18T00:23:43.998Z,2.97
2023-03-18T00:26:11.981Z,3.23
2023-03-18T00:28:39.363Z,3.33
2023-03-18T00:31:13.773Z,3.30
2023-03-18T00:33:43.852Z,3.20
2023-03-18T00:36:13.750Z,3.30
2023-03-18T00:38:42.300Z,3.40
2023-03-18T00:41:16.221Z,3.17
2023-03-18T00:43:46.737Z,3.57
2023-03-18T00:46:19.861Z,3.67
2023-03-18T00:48:47.940Z,3.43
2023-03-18T00:51:17.277Z,3.20
2023-03-18T00:53:50.738Z,3.37
2023-03-18T00:56:19.865Z,3.53
2023-03-18T00:58:48.127Z,3.63
2023-03-18T01:01:15.901Z,3.43
2023-03-18T01:03:43.552Z,3.87
2023-03-18T01:06:17.718Z,3.73
2023-03-18T01:08:44.632Z,4.07
2023-03-18T01:11:12.115Z,3.40
2023-03-18T01:13:40.641Z,3.63
2023-03-18T01:16:08.933Z,4.07
2023-03-18T01:18:36.516Z,3.80
2023-03-18T01:21:04.181Z,3.97
2023-03-18T01:23:31.216Z,3.80
2023-03-18T01:25:59.224Z,3.90
2023-03-18T01:28:27.306Z,3.93
2023-03-18T01:30:55.729Z,4.70
2023-03-18T01:33:23.485Z,4.17
2023-03-18T01:35:58.943Z,4.20
2023-03-18T01:38:30.164Z,4.03
2023-03-18T01:40:58.199Z,4.47
2023-03-18T01:43:39.336Z,4.40
2023-03-18T01:46:46.102Z,4.40
2023-03-18T01:49:21.259Z,4.23
2023-03-18T01:52:24.885Z,4.70
2023-03-18T01:55:06.107Z,4.53
2023-03-18T01:57:34.554Z,4.73
2023-03-18T02:00:01.986Z,4.83
2023-03-18T02:02:29.388Z,4.30
2023-03-18T02:05:01.761Z,4.83
2023-03-18T02:07:34.380Z,4.57
2023-03-18T02:10:11.169Z,5.20
2023-03-18T02:12:40.286Z,4.47
2023-03-18T02:15:11.427Z,4.40
2023-03-18T02:17:42.377Z,4.80
2023-03-18T02:20:30.526Z,4.63
2023-03-18T02:23:27.058Z,5.00
2023-03-18T02:26:00.111Z,4.50
2023-03-18T02:28:30.119Z,5.17
2023-03-18T02:31:00.528Z,5.67
2023-03-18T02:33:35.235Z,5.77
2023-03-18T02:36:07.229Z,5.57
2023-03-18T02:38:33.971Z,5.27
2023-03-18T02:41:01.293Z,5.33
2023-03-18T02:43:31.486Z,5.37
2023-03-18T02:45:58.428Z,5.17
2023-03-18T02:48:31.363Z,4.77
2023-03-18T02:50:58.316Z,5.23
2023-03-18T02:53:26.232Z,5.03
2023-03-18T02:55:53.322Z,4.87
2023-03-18T02:58:20.406Z,4.47
2023-03-18T03:00:47.209Z,4.73
2023-03-18T03:03:14.354Z,5.37
2023-03-18T03:05:41.452Z,5.20
2023-03-18T03:08:08.431Z,4.87
2023-03-18T03:10:35.580Z,4.70
2023-03-18T03:13:03.141Z,5.20
2023-03-18T03:15:30.763Z,4.90
2023-03-18T03:17:58.484Z,4.90
2023-03-18T03:20:25.286Z,5.30
2023-03-18T03:22:53.257Z,5.00
2023-03-18T03:25:20.767Z,4.87
2023-03-18T03:27:48.434Z,5.03
2023-03-18T03:30:16.769Z,5.57
2023-03-18T03:32:43.814Z,4.73
2023-03-18T03:35:14.200Z,5.80
2023-03-18T03:37:42.307Z,5.00
2023-03-18T03:40:11.284Z,5.40
2023-03-18T03:42:38.589Z,5.83
2023-03-18T03:45:07.688Z,5.73
2023-03-18T03:47:34.774Z,5.47
2023-03-18T03:50:02.510Z,5.10
2023-03-18T03:52:29.626Z,5.60
2023-03-18T03:54:56.590Z,5.40
2023-03-18T03:57:24.231Z,5.90
2023-03-18T03:59:51.509Z,6.07
2023-03-18T04:02:21.418Z,5.77
2023-03-18T04:04:48.206Z,5.80
2023-03-18T04:07:15.643Z,5.63
2023-03-18T04:09:42.817Z,5.87
2023-03-18T04:12:10.244Z,5.80
2023-03-18T04:14:37.229Z,6.07
2023-03-18T04:17:04.309Z,6.33
2023-03-18T04:19:31.538Z,6.23
2023-03-18T04:21:58.512Z,7.07
2023-03-18T04:24:26.193Z,6.73
2023-03-18T04:26:52.959Z,5.30
2023-03-18T04:29:19.968Z,6.17
2023-03-18T04:31:46.925Z,6.20
2023-03-18T04:34:13.767Z,6.57
2023-03-18T04:36:40.741Z,6.80
2023-03-18T04:39:09.559Z,6.33
2023-03-18T04:41:39.806Z,6.73
2023-03-18T04:44:06.881Z,6.50
2023-03-18T04:46:33.711Z,6.47
2023-03-18T04:49:00.509Z,6.80
2023-03-18T04:51:27.545Z,7.03
2023-03-18T04:53:54.545Z,6.30
2023-03-18T04:56:21.554Z,6.27
2023-03-18T04:58:48.596Z,5.67
2023-03-18T05:01:15.865Z,6.03
2023-03-18T05:03:43.377Z,5.90
2023-03-18T05:06:21.847Z,6.00
2023-03-18T05:08:48.976Z,6.40
2023-03-18T05:11:15.735Z,5.97
2023-03-18T05:13:42.659Z,5.30
2023-03-18T05:16:10.039Z,5.50
2023-03-18T05:18:38.366Z,5.70
2023-03-18T05:21:07.622Z,5.67
2023-03-18T05:23:34.844Z,6.17
2023-03-18T05:26:02.013Z,5.80
2023-03-18T05:28:29.552Z,5.40
2023-03-18T05:30:56.819Z,6.00
2023-03-18T05:33:23.610Z,5.27
2023-03-18T05:35:50.573Z,6.10
2023-03-18T05:38:17.374Z,5.57
2023-03-18T05:40:44.845Z,5.57
2023-03-18T05:43:12.126Z,6.00
2023-03-18T05:45:41.164Z,5.77
2023-03-18T05:48:08.693Z,5.83
2023-03-18T05:50:41.827Z,6.20
2023-03-18T05:53:09.596Z,5.87
2023-03-18T05:55:36.500Z,5.73
2023-03-18T05:58:03.961Z,4.77
2023-03-18T06:00:32.036Z,6.07
2023-03-18T06:03:01.376Z,5.43
2023-03-18T06:05:29.925Z,5.47
2023-03-18T06:07:57.467Z,5.70
2023-03-18T06:10:25.539Z,5.93
2023-03-18T06:12:52.895Z,5.17
2023-03-18T06:15:21.595Z,5.47
2023-03-18T06:17:48.793Z,5.47
2023-03-18T06:20:16.356Z,5.50
2023-03-18T06:22:49.079Z,5.43
2023-03-18T06:25:18.917Z,5.80
2023-03-18T06:27:46.710Z,4.87
2023-03-18T06:30:14.677Z,5.17
2023-03-18T06:32:41.526Z,4.97
2023-03-18T06:35:10.718Z,4.90
2023-03-18T06:37:39.313Z,4.67
2023-03-18T06:40:08.039Z,5.60
2023-03-18T06:42:35.174Z,4.63
2023-03-18T06:45:02.580Z,4.40
2023-03-18T06:47:29.589Z,4.50
2023-03-18T06:49:56.836Z,4.60
2023-03-18T06:52:24.049Z,4.20
2023-03-18T06:54:51.863Z,4.10
2023-03-18T06:57:19.150Z,4.47
2023-03-18T06:59:47.411Z,4.90
2023-03-18T07:02:15.469Z,4.57
2023-03-18T07:04:42.686Z,4.73
2023-03-18T07:07:09.917Z,4.50
2023-03-18T07:09:37.007Z,4.47
2023-03-18T07:12:03.945Z,4.80
2023-03-18T07:14:30.955Z,4.30
2023-03-18T07:16:58.016Z,4.27
2023-03-18T07:19:25.198Z,4.77
2023-03-18T07:21:52.318Z,4.50
2023-03-18T07:24:21.208Z,4.53
2023-03-18T07:26:50.149Z,4.50
2023-03-18T07:29:17.941Z,4.30
2023-03-18T07:31:44.815Z,4.63
2023-03-18T07:34:13.424Z,4.23
2023-03-18T07:36:41.211Z,4.67
2023-03-18T07:39:10.218Z,4.37
2023-03-18T07:41:38.096Z,5.00
2023-03-18T07:44:07.015Z,4.57
2023-03-18T07:46:33.968Z,4.50
2023-03-18T07:49:01.172Z,4.70
2023-03-18T07:51:28.359Z,4.60
2023-03-18T07:53:55.540Z,5.10
2023-03-18T07:56:22.640Z,4.67
2023-03-18T07:58:50.577Z,4.60
2023-03-18T08:01:19.556Z,4.90
2023-03-18T08:03:46.876Z,4.37
2023-03-18T08:06:16.027Z,4.80
2023-03-18T08:08:43.733Z,4.57
2023-03-18T08:11:11.139Z,4.33
2023-03-18T08:13:40.102Z,3.73
2023-03-18T08:16:07.486Z,4.07
2023-03-18T08:18:34.710Z,3.80
2023-03-18T08:21:02.053Z,4.03
2023-03-18T08:23:29.273Z,4.27
2023-03-18T08:25:56.244Z,4.17
2023-03-18T08:28:24.023Z,4.07
2023-03-18T08:30:57.939Z,4.03
2023-03-18T08:33:26.176Z,3.70
2023-03-18T08:35:54.090Z,4.20
2023-03-18T08:38:20.876Z,4.10
2023-03-18T08:40:48.546Z,4.33
2023-03-18T08:43:15.451Z,3.97
2023-03-18T08:45:43.105Z,4.60
2023-03-18T08:48:10.687Z,4.93
2023-03-18T08:50:38.102Z,4.27
2023-03-18T08:53:05.754Z,4.47
2023-03-18T08:55:35.954Z,4.37
2023-03-18T08:58:04.414Z,5.00
2023-03-18T09:00:31.622Z,4.77
2023-03-18T09:02:58.706Z,4.70
2023-03-18T09:05:25.874Z,5.20
2023-03-18T09:07:53.316Z,4.80
2023-03-18T09:10:20.788Z,4.67
2023-03-18T09:12:47.887Z,4.73
2023-03-18T09:15:21.152Z,4.90
2023-03-18T09:18:03.854Z,5.00
2023-03-18T09:20:35.464Z,5.13
2023-03-18T09:23:02.793Z,5.47
2023-03-18T09:25:29.805Z,4.67
2023-03-18T09:27:57.400Z,5.60
2023-03-18T09:30:25.669Z,5.00
2023-03-18T09:32:53.291Z,5.70
2023-03-18T09:35:20.461Z,5.40
2023-03-18T09:37:47.808Z,6.03
2023-03-18T09:40:32.945Z,6.60
2023-03-18T09:43:44.852Z,6.37
2023-03-18T09:46:20.921Z,5.97
2023-03-18T09:49:24.560Z,5.93
2023-03-18T09:52:07.356Z,6.00
2023-03-18T09:55:02.593Z,5.87
2023-03-18T09:57:33.860Z,5.80
2023-03-18T10:00:16.166Z,7.17
2023-03-18T10:02:55.101Z,6.60
2023-03-18T10:05:34.312Z,5.67
2023-03-18T10:08:09.144Z,5.57
2023-03-18T10:10:41.407Z,5.70
2023-03-18T10:13:36.730Z,6.27
2023-03-18T10:16:07.650Z,5.87
2023-03-18T10:18:38.447Z,5.83
2023-03-18T10:21:08.033Z,5.87
2023-03-18T10:23:44.698Z,6.40
2023-03-18T10:26:15.962Z,5.57
2023-03-18T10:29:08.924Z,6.13
2023-03-18T10:31:47.409Z,5.83
2023-03-18T10:34:19.213Z,4.90
2023-03-18T10:37:24.972Z,5.93
2023-03-18T10:39:56.215Z,4.77
2023-03-18T10:42:27.282Z,4.47
2023-03-18T10:45:03.081Z,5.10
2023-03-18T10:47:36.684Z,5.67
2023-03-18T10:50:22.359Z,5.17
2023-03-18T10:53:13.385Z,5.20
2023-03-18T10:56:03.194Z,5.43
2023-03-18T10:58:30.095Z,5.33
2023-03-18T11:00:57.638Z,4.43
2023-03-18T11:03:41.212Z,4.53
2023-03-18T11:06:17.246Z,4.40
2023-03-18T11:08:48.641Z,3.83
2023-03-18T11:11:25.702Z,4.20
2023-03-18T11:13:56.044Z,3.53
2023-03-18T11:16:38.558Z,3.60
2023-03-18T11:19:26.447Z,3.20
2023-03-18T11:22:17.800Z,3.03
2023-03-18T11:24:45.130Z,2.90
2023-03-18T11:27:17.473Z,2.50
2023-03-18T11:30:18.691Z,2.80
2023-03-18T11:32:55.112Z,2.70
2023-03-18T11:35:44.489Z,2.60
2023-03-18T11:38:20.498Z,3.73
2023-03-18T11:40:47.968Z,2.90
2023-03-18T11:43:21.171Z,2.90
2023-03-18T11:45:59.357Z,2.70
2023-03-18T11:48:30.673Z,2.70
2023-03-18T11:51:15.090Z,2.40
2023-03-18T11:54:00.755Z,2.40
2023-03-18T11:56:48.930Z,2.30
2023-03-18T11:59:34.020Z,2.40
2023-03-18T12:02:28.883Z,2.43
2023-03-18T12:05:11.040Z,2.30
2023-03-18T12:08:01.403Z,2.40
2023-03-18T12:10:32.757Z,2.07
2023-03-18T12:13:17.949Z,2.37
2023-03-18T12:15:47.650Z,2.10
2023-03-18T12:18:43.125Z,2.10
2023-03-18T12:21:48.596Z,2.17
2023-03-18T12:24:44.821Z,1.90
2023-03-18T12:27:12.784Z,2.10
2023-03-18T12:29:50.370Z,2.73
2023-03-18T12:32:36.933Z,2.50
2023-03-18T12:35:22.626Z,2.43
2023-03-18T12:38:05.311Z,1.77
2023-03-18T12:40:35.244Z,2.03
2023-03-18T12:43:20.898Z,1.93
2023-03-18T12:45:53.796Z,1.67
2023-03-18T12:48:43.222Z,1.77
2023-03-18T12:51:15.624Z,1.80
2023-03-18T12:53:46.456Z,1.73
2023-03-18T12:56:19.143Z,1.50
2023-03-18T12:59:09.430Z,2.00
2023-03-18T13:01:54.820Z,1.93
2023-03-18T13:04:24.561Z,1.90
2023-03-18T13:07:16.779Z,1.93
2023-03-18T13:10:07.413Z,1.90
2023-03-18T13:12:38.904Z,2.00
2023-03-18T13:15:33.119Z,2.17
2023-03-18T13:18:32.279Z,2.40
2023-03-18T13:20:59.981Z,2.17
2023-03-18T13:23:47.942Z,2.37
2023-03-18T13:26:25.856Z,2.10
2023-03-18T13:29:00.493Z,2.37
2023-03-18T13:31:45.466Z,1.97
2023-03-18T13:34:26.745Z,1.97
2023-03-18T13:37:12.318Z,2.50
2023-03-18T13:40:16.216Z,2.10
2023-03-18T13:42:44.553Z,3.20
2023-03-18T13:45:37.890Z,3.17
2023-03-18T13:48:18.202Z,2.73
2023-03-18T13:50:47.863Z,3.70
2023-03-18T13:53:25.421Z,2.70
2023-03-18T13:55:55.983Z,3.10
2023-03-18T13:58:29.887Z,2.40
2023-03-18T14:00:59.570Z,2.80
2023-03-18T14:03:31.524Z,2.63
2023-03-18T14:06:04.794Z,2.70
2023-03-18T14:08:42.381Z,2.70
2023-03-18T14:11:23.164Z,2.63
2023-03-18T14:14:00.583Z,2.60
2023-03-18T14:16:38.151Z,2.50
2023-03-18T14:19:18.411Z,2.40
2023-03-18T14:21:53.000Z,2.30
2023-03-18T14:24:21.810Z,2.40
2023-03-18T14:27:10.024Z,2.40
2023-03-18T14:29:47.805Z,2.20
2023-03-18T14:32:34.186Z,2.40
2023-03-18T14:35:27.707Z,2.47
2023-03-18T14:38:09.428Z,2.00
2023-03-18T14:40:40.952Z,1.73
2023-03-18T14:43:31.573Z,1.90
2023-03-18T14:46:02.910Z,1.77
2023-03-18T14:48:32.932Z,2.20
2023-03-18T14:51:12.050Z,2.00
2023-03-18T14:53:53.818Z,1.60
2023-03-18T14:56:25.950Z,1.87
2023-03-18T14:58:53.788Z,1.80
2023-03-18T15:01:33.131Z,1.80
2023-03-18T15:04:01.300Z,1.30
2023-03-18T15:06:29.390Z,1.53
2023-03-18T15:09:09.974Z,1.70
2023-03-18T15:11:43.560Z,1.40
2023-03-18T15:14:28.221Z,1.90
2023-03-18T15:16:58.429Z,1.80
2023-03-18T15:19:27.596Z,1.60
2023-03-18T15:21:56.588Z,1.90
2023-03-18T15:24:26.607Z,2.10
2023-03-18T15:27:05.033Z,2.00
2023-03-18T15:29:36.364Z,1.70
2023-03-18T15:32:10.249Z,1.73
2023-03-18T15:34:38.458Z,1.30
2023-03-18T15:37:33.942Z,1.90
2023-03-18T15:40:23.340Z,2.03
2023-03-18T15:42:50.943Z,1.97
2023-03-18T15:45:21.415Z,2.10
2023-03-18T15:47:50.772Z,2.13
2023-03-18T15:50:30.537Z,1.93
2023-03-18T15:53:05.995Z,1.60
2023-03-18T15:55:46.565Z,1.63
2023-03-18T15:58:35.680Z,2.13
2023-03-18T16:01:03.140Z,1.97
2023-03-18T16:03:33.793Z,1.50
2023-03-18T16:06:02.588Z,1.50
2023-03-18T16:08:29.639Z,1.43
2023-03-18T16:11:00.279Z,1.63
2023-03-18T16:13:30.203Z,1.60
2023-03-18T16:15:57.373Z,1.50
2023-03-18T16:18:24.320Z,1.70
2023-03-18T16:20:53.064Z,1.60
2023-03-18T16:23:20.316Z,1.70
2023-03-18T16:25:50.977Z,1.50
2023-03-18T16:28:21.323Z,1.57
2023-03-18T16:30:52.729Z,1.70
2023-03-18T16:33:20.544Z,1.50
2023-03-18T16:35:58.871Z,1.40
2023-03-18T16:38:26.721Z,1.70
2023-03-18T16:40:54.944Z,1.73
2023-03-18T16:43:23.171Z,1.90
2023-03-18T16:45:54.319Z,1.97
2023-03-18T16:48:22.282Z,2.10
2023-03-18T16:50:51.577Z,1.73
2023-03-18T16:53:29.698Z,2.00
2023-03-18T16:56:24.282Z,1.70
2023-03-18T16:58:52.334Z,1.90
2023-03-18T17:01:19.671Z,1.90
2023-03-18T17:03:46.614Z,1.90
2023-03-18T17:06:13.609Z,2.00
2023-03-18T17:08:41.193Z,2.00
2023-03-18T17:11:15.178Z,2.27
2023-03-18T17:13:42.262Z,2.20
2023-03-18T17:16:18.161Z,2.20
2023-03-18T17:18:45.196Z,2.50
2023-03-18T17:21:12.496Z,2.50
2023-03-18T17:23:40.119Z,5.23
2023-03-18T17:26:08.178Z,16.57
2023-03-18T17:28:40.325Z,15.40
2023-03-18T17:31:07.786Z,5.97
2023-03-18T17:33:37.181Z,9.97
2023-03-18T17:36:05.508Z,8.87
2023-03-18T17:38:35.099Z,10.40
2023-03-18T17:41:12.624Z,5.70
2023-03-18T17:43:40.383Z,4.10
2023-03-18T17:46:07.283Z,3.97
2023-03-18T17:48:36.803Z,3.00
2023-03-18T17:51:09.326Z,3.40
2023-03-18T17:53:48.382Z,3.00
2023-03-18T17:56:17.998Z,2.67
2023-03-18T17:58:51.584Z,3.37
2023-03-18T18:01:26.704Z,3.27
2023-03-18T18:03:55.952Z,3.50
2023-03-18T18:06:25.701Z,3.77
2023-03-18T18:08:54.210Z,4.53
2023-03-18T18:11:24.293Z,6.10
2023-03-18T18:13:53.742Z,4.60
2023-03-18T18:16:21.649Z,4.10
2023-03-18T18:18:50.048Z,4.00
2023-03-18T18:21:20.099Z,5.30
2023-03-18T18:23:47.335Z,4.83
2023-03-18T18:26:17.305Z,5.20
2023-03-18T18:28:52.102Z,5.70
2023-03-18T18:31:20.715Z,6.93
2023-03-18T18:33:50.134Z,8.07
2023-03-18T18:36:18.341Z,6.80
2023-03-18T18:38:45.670Z,5.77
2023-03-18T18:41:12.776Z,6.10
2023-03-18T18:43:39.887Z,5.90
2023-03-18T18:46:14.862Z,6.33
2023-03-18T18:48:44.192Z,6.10
2023-03-18T18:51:19.163Z,6.60
2023-03-18T18:53:46.772Z,8.03
2023-03-18T18:56:15.723Z,7.73
2023-03-18T18:58:42.930Z,7.60
2023-03-18T19:01:11.953Z,7.53
2023-03-18T19:03:41.796Z,8.00
2023-03-18T19:06:17.768Z,7.07
2023-03-18T19:08:44.557Z,5.20
2023-03-18T19:11:12.267Z,5.33
2023-03-18T19:13:39.667Z,5.30
2023-03-18T19:16:27.659Z,5.20
2023-03-18T19:18:55.302Z,5.03
2023-03-18T19:21:22.899Z,4.40
2023-03-18T19:23:50.738Z,4.63
2023-03-18T19:26:18.760Z,4.43
2023-03-18T19:28:55.346Z,4.70
2023-03-18T19:31:32.611Z,4.53
2023-03-18T19:34:00.261Z,5.10
2023-03-18T19:36:32.717Z,6.10
2023-03-18T19:39:01.278Z,7.20
2023-03-18T19:41:29.131Z,6.87
2023-03-18T19:44:04.523Z,7.73
2023-03-18T19:46:40.594Z,7.97
2023-03-18T19:49:21.848Z,8.70
2023-03-18T19:51:50.504Z,9.33
2023-03-18T19:54:28.610Z,9.57
2023-03-18T19:57:06.831Z,10.03
2023-03-18T19:59:39.217Z,10.63
2023-03-18T20:02:26.738Z,10.23
2023-03-18T20:04:56.948Z,10.23
2023-03-18T20:07:26.392Z,11.00
2023-03-18T20:09:54.363Z,11.93
2023-03-18T20:12:24.010Z,13.50
2023-03-18T20:14:52.086Z,12.97
2023-03-18T20:17:30.898Z,13.60
2023-03-18T20:19:58.025Z,13.50
2023-03-18T20:22:31.843Z,13.90
2023-03-18T20:24:59.462Z,13.70
2023-03-18T20:27:26.617Z,14.23
2023-03-18T20:29:53.697Z,14.27
2023-03-18T20:32:20.495Z,14.47
2023-03-18T20:34:48.446Z,14.30
2023-03-18T20:37:36.410Z,16.20
2023-03-18T20:40:04.797Z,16.17
2023-03-18T20:42:32.198Z,17.70
2023-03-18T20:44:59.176Z,17.87
2023-03-18T20:47:25.984Z,18.23
2023-03-18T20:49:54.656Z,19.50
2023-03-18T20:52:29.875Z,18.97
2023-03-18T20:54:57.118Z,19.37
2023-03-18T20:57:25.080Z,20.13
2023-03-18T20:59:52.503Z,18.97
2023-03-18T21:02:30.245Z,19.13
2023-03-18T21:05:02.107Z,19.30
2023-03-18T21:07:29.352Z,19.17
2023-03-18T21:09:56.478Z,25.73
2023-03-18T21:12:24.922Z,22.57
2023-03-18T21:14:51.958Z,21.23
2023-03-18T21:17:27.609Z,19.67
2023-03-18T21:20:08.154Z,20.13
2023-03-18T21:22:44.132Z,18.50
2023-03-18T21:25:19.878Z,19.77
2023-03-18T21:27:47.542Z,19.30
2023-03-18T21:30:15.541Z,19.37
2023-03-18T21:32:42.688Z,19.37
2023-03-18T21:35:19.593Z,18.87
2023-03-18T21:37:46.887Z,19.73
2023-03-18T21:40:16.433Z,18.63
2023-03-18T21:42:44.326Z,19.50
2023-03-18T21:45:13.658Z,19.30
2023-03-18T21:47:41.089Z,18.23
2023-03-18T21:50:18.150Z,18.20
2023-03-18T21:52:45.297Z,17.00
2023-03-18T21:55:12.889Z,17.33
2023-03-18T21:57:39.882Z,15.97
2023-03-18T22:00:07.690Z,16.47
2023-03-18T22:02:37.690Z,16.93
2023-03-18T22:05:11.330Z,16.40
2023-03-18T22:07:38.157Z,15.40
2023-03-18T22:10:07.122Z,16.30
2023-03-18T22:12:34.684Z,15.20
2023-03-18T22:15:01.697Z,15.53
2023-03-18T22:17:31.624Z,16.20
2023-03-18T22:20:01.242Z,16.23
2023-03-18T22:22:36.827Z,15.80
2023-03-18T22:25:04.287Z,15.20
2023-03-18T22:27:32.063Z,16.10
2023-03-18T22:30:00.806Z,16.13
2023-03-18T22:32:27.788Z,16.10
2023-03-18T22:34:55.341Z,15.40
2023-03-18T22:37:24.056Z,15.70
2023-03-18T22:39:51.296Z,16.80
2023-03-18T22:42:23.569Z,16.90
2023-03-18T22:44:50.431Z,16.30
2023-03-18T22:47:20.153Z,17.10
2023-03-18T22:49:47.987Z,16.13
2023-03-18T22:52:30.507Z,16.57
2023-03-18T22:55:01.178Z,16.13
2023-03-18T22:57:29.040Z,15.63
2023-03-18T22:59:57.158Z,15.67
2023-03-18T23:02:27.785Z,14.67
2023-03-18T23:04:55.536Z,13.47
2023-03-18T23:07:52.073Z,13.43
2023-03-18T23:10:19.656Z,12.40
2023-03-18T23:12:48.082Z,12.93
2023-03-18T23:15:17.785Z,13.17
2023-03-18T23:17:45.115Z,11.90
2023-03-18T23:20:17.623Z,12.03
2023-03-18T23:22:45.954Z,10.87
2023-03-18T23:25:16.484Z,10.10
2023-03-18T23:27:44.400Z,9.60
2023-03-18T23:30:13.717Z,9.50
2023-03-18T23:32:41.405Z,9.87
2023-03-18T23:35:09.433Z,9.07
2023-03-18T23:37:36.675Z,8.43
2023-03-18T23:40:05.277Z,7.83
2023-03-18T23:42:32.089Z,8.67
2023-03-18T23:44:59.298Z,8.10
2023-03-18T23:47:26.516Z,7.03
2023-03-18T23:49:53.363Z,7.33
2023-03-18T23:52:20.773Z,6.87
2023-03-18T23:54:47.644Z,6.43
2023-03-18T23:57:15.169Z,6.20
2023-03-18T23:59:42.073Z,6.23
